sensor_id;sensor_type;location;lat;lon;timestamp;pressure;altitude;pressure_sealevel;temperature;humidity
37710;BME280;60223;34.854;-92.408;2022-07-23T00:02:05;100453.16;;;24.79;37.24
37710;BME280;60223;34.854;-92.408;2022-07-23T00:04:33;100453.61;;;25.67;35.96
37710;BME280;60223;34.854;-92.408;2022-07-23T00:06:58;100454.69;;;27.34;33.90
37710;BME280;60223;34.854;-92.408;2022-07-23T00:09:32;100458.39;;;27.84;33.82
37710;BME280;60223;34.854;-92.408;2022-07-23T00:11:49;100452.85;;;27.80;34.55
37710;BME280;60223;34.854;-92.408;2022-07-23T00:14:15;100454.33;;;26.10;37.27
37710;BME280;60223;34.854;-92.408;2022-07-23T00:16:41;100455.04;;;28.27;34.80
37710;BME280;60223;34.854;-92.408;2022-07-23T00:19:06;100457.87;;;27.37;35.98
37710;BME280;60223;34.854;-92.408;2022-07-23T00:21:32;100455.49;;;27.47;34.75
37710;BME280;60223;34.854;-92.408;2022-07-23T00:23:58;100465.60;;;28.88;32.20
37710;BME280;60223;34.854;-92.408;2022-07-23T00:26:23;100462.49;;;28.47;32.27
37710;BME280;60223;34.854;-92.408;2022-07-23T00:28:57;100460.04;;;25.46;35.32
37710;BME280;60223;34.854;-92.408;2022-07-23T00:31:15;100466.49;;;24.09;36.51
37710;BME280;60223;34.854;-92.408;2022-07-23T00:33:40;100466.66;;;22.90;37.64
37710;BME280;60223;34.854;-92.408;2022-07-23T00:36:06;100467.22;;;23.63;36.42
37710;BME280;60223;34.854;-92.408;2022-07-23T00:38:31;100466.86;;;23.55;36.23
37710;BME280;60223;34.854;-92.408;2022-07-23T00:40:58;100467.48;;;23.28;36.28
37710;BME280;60223;34.854;-92.408;2022-07-23T00:43:24;100466.59;;;22.63;36.67
37710;BME280;60223;34.854;-92.408;2022-07-23T00:45:48;100470.25;;;23.18;35.57
37710;BME280;60223;34.854;-92.408;2022-07-23T00:48:13;100474.89;;;23.45;35.62
37710;BME280;60223;34.854;-92.408;2022-07-23T00:50:39;100473.36;;;22.20;36.49
37710;BME280;60223;34.854;-92.408;2022-07-23T00:53:04;100474.12;;;22.69;35.75
37710;BME280;60223;34.854;-92.408;2022-07-23T00:55:30;100480.38;;;23.18;34.72
37710;BME280;60223;34.854;-92.408;2022-07-23T00:57:56;100478.26;;;22.27;35.17
37710;BME280;60223;34.854;-92.408;2022-07-23T01:00:22;100478.15;;;22.50;34.94
37710;BME280;60223;34.854;-92.408;2022-07-23T01:02:47;100479.83;;;22.47;35.06
37710;BME280;60223;34.854;-92.408;2022-07-23T01:05:11;100480.15;;;22.69;34.64
37710;BME280;60223;34.854;-92.408;2022-07-23T01:07:40;100487.48;;;22.22;34.84
37710;BME280;60223;34.854;-92.408;2022-07-23T01:10:03;100492.27;;;23.30;33.55
37710;BME280;60223;34.854;-92.408;2022-07-23T01:12:30;100492.15;;;22.69;34.17
37710;BME280;60223;34.854;-92.408;2022-07-23T01:14:59;100495.66;;;22.65;33.94
37710;BME280;60223;34.854;-92.408;2022-07-23T01:17:21;100495.21;;;21.85;34.64
37710;BME280;60223;34.854;-92.408;2022-07-23T01:19:44;100494.50;;;22.80;33.46
37710;BME280;60223;34.854;-92.408;2022-07-23T01:22:12;100495.45;;;22.78;33.92
37710;BME280;60223;34.854;-92.408;2022-07-23T01:24:35;100497.35;;;22.73;33.26
37710;BME280;60223;34.854;-92.408;2022-07-23T01:27:04;100506.00;;;23.66;32.01
37710;BME280;60223;34.854;-92.408;2022-07-23T01:29:37;100504.91;;;22.27;34.07
37710;BME280;60223;34.854;-92.408;2022-07-23T01:31:55;100508.78;;;21.85;34.13
37710;BME280;60223;34.854;-92.408;2022-07-23T01:34:19;100507.58;;;23.14;32.30
37710;BME280;60223;34.854;-92.408;2022-07-23T01:36:46;100508.52;;;22.05;33.61
37710;BME280;60223;34.854;-92.408;2022-07-23T01:39:11;100511.28;;;22.86;32.61
37710;BME280;60223;34.854;-92.408;2022-07-23T01:41:37;100514.84;;;21.34;34.20
37710;BME280;60223;34.854;-92.408;2022-07-23T01:44:03;100517.85;;;21.14;34.00
37710;BME280;60223;34.854;-92.408;2022-07-23T01:46:29;100520.33;;;21.40;34.05
37710;BME280;60223;34.854;-92.408;2022-07-23T01:48:54;100516.44;;;21.32;34.20
37710;BME280;60223;34.854;-92.408;2022-07-23T01:51:17;100518.50;;;23.00;32.21
37710;BME280;60223;34.854;-92.408;2022-07-23T01:53:45;100523.01;;;21.60;33.51
37710;BME280;60223;34.854;-92.408;2022-07-23T01:56:10;100523.67;;;21.62;33.31
37710;BME280;60223;34.854;-92.408;2022-07-23T01:58:37;100523.25;;;21.05;33.85
37710;BME280;60223;34.854;-92.408;2022-07-23T02:01:03;100528.07;;;20.86;34.20
37710;BME280;60223;34.854;-92.408;2022-07-23T02:03:28;100526.44;;;21.58;33.46
37710;BME280;60223;34.854;-92.408;2022-07-23T02:05:52;100528.02;;;21.71;33.31
37710;BME280;60223;34.854;-92.408;2022-07-23T02:08:20;100531.03;;;22.29;32.58
37710;BME280;60223;34.854;-92.408;2022-07-23T02:10:45;100531.39;;;21.74;33.28
37710;BME280;60223;34.854;-92.408;2022-07-23T02:13:11;100533.60;;;21.86;33.40
37710;BME280;60223;34.854;-92.408;2022-07-23T02:15:37;100533.27;;;21.99;32.98
37710;BME280;60223;34.854;-92.408;2022-07-23T02:18:02;100532.45;;;22.82;31.72
37710;BME280;60223;34.854;-92.408;2022-07-23T02:20:25;100537.20;;;22.35;32.17
37710;BME280;60223;34.854;-92.408;2022-07-23T02:22:53;100542.81;;;22.67;32.26
37710;BME280;60223;34.854;-92.408;2022-07-23T02:25:18;100545.27;;;22.65;31.98
37710;BME280;60223;34.854;-92.408;2022-07-23T02:27:45;100543.73;;;23.06;31.61
37710;BME280;60223;34.854;-92.408;2022-07-23T02:30:11;100543.05;;;22.49;31.77
37710;BME280;60223;34.854;-92.408;2022-07-23T02:32:34;100545.74;;;22.69;31.60
37710;BME280;60223;34.854;-92.408;2022-07-23T02:35:01;100551.95;;;22.43;31.82
37710;BME280;60223;34.854;-92.408;2022-07-23T02:37:28;100557.48;;;22.88;32.96
37710;BME280;60223;34.854;-92.408;2022-07-23T02:39:52;100555.04;;;22.99;33.51
37710;BME280;60223;34.854;-92.408;2022-07-23T02:42:19;100561.58;;;23.77;33.30
37710;BME280;60223;34.854;-92.408;2022-07-23T02:44:43;100562.40;;;25.12;32.22
37710;BME280;60223;34.854;-92.408;2022-07-23T02:47:10;100565.06;;;23.83;34.17
37710;BME280;60223;34.854;-92.408;2022-07-23T02:49:35;100564.55;;;24.00;34.33
37710;BME280;60223;34.854;-92.408;2022-07-23T02:51:58;100568.34;;;25.37;33.46
37710;BME280;60223;34.854;-92.408;2022-07-23T02:54:27;100569.84;;;25.01;34.58
37710;BME280;60223;34.854;-92.408;2022-07-23T02:56:50;100571.35;;;25.15;34.47
37710;BME280;60223;34.854;-92.408;2022-07-23T02:59:18;100573.43;;;25.55;33.93
37710;BME280;60223;34.854;-92.408;2022-07-23T03:01:43;100574.81;;;25.30;34.34
37710;BME280;60223;34.854;-92.408;2022-07-23T03:04:09;100576.04;;;26.44;32.80
37710;BME280;60223;34.854;-92.408;2022-07-23T03:06:35;100575.54;;;25.95;33.57
37710;BME280;60223;34.854;-92.408;2022-07-23T03:09:00;100579.53;;;26.51;33.64
37710;BME280;60223;34.854;-92.408;2022-07-23T03:11:26;100582.37;;;25.55;34.72
37710;BME280;60223;34.854;-92.408;2022-07-23T03:13:51;100583.75;;;26.67;33.54
37710;BME280;60223;34.854;-92.408;2022-07-23T03:16:17;100588.77;;;26.24;34.14
37710;BME280;60223;34.854;-92.408;2022-07-23T03:18:43;100592.36;;;26.97;33.74
37710;BME280;60223;34.854;-92.408;2022-07-23T03:21:08;100595.47;;;25.94;34.37
37710;BME280;60223;34.854;-92.408;2022-07-23T03:23:34;100596.06;;;26.81;33.90
37710;BME280;60223;34.854;-92.408;2022-07-23T03:25:59;100595.25;;;26.83;34.05
37710;BME280;60223;34.854;-92.408;2022-07-23T03:28:23;100596.16;;;26.96;33.70
37710;BME280;60223;34.854;-92.408;2022-07-23T03:30:51;100595.00;;;27.72;32.58
37710;BME280;60223;34.854;-92.408;2022-07-23T03:33:18;100595.82;;;28.98;30.85
37710;BME280;60223;34.854;-92.408;2022-07-23T03:35:42;100597.35;;;24.91;34.54
37710;BME280;60223;34.854;-92.408;2022-07-23T03:38:08;100596.81;;;22.83;37.06
37710;BME280;60223;34.854;-92.408;2022-07-23T03:40:31;100595.07;;;22.82;36.65
37710;BME280;60223;34.854;-92.408;2022-07-23T03:42:59;100590.64;;;23.04;35.91
37710;BME280;60223;34.854;-92.408;2022-07-23T03:45:24;100590.45;;;22.99;36.02
37710;BME280;60223;34.854;-92.408;2022-07-23T03:47:50;100590.20;;;22.58;36.15
37710;BME280;60223;34.854;-92.408;2022-07-23T03:50:15;100597.15;;;24.72;35.01
37710;BME280;60223;34.854;-92.408;2022-07-23T03:52:42;100598.93;;;25.12;34.13
37710;BME280;60223;34.854;-92.408;2022-07-23T03:55:07;100595.63;;;25.70;34.27
37710;BME280;60223;34.854;-92.408;2022-07-23T03:57:32;100591.63;;;24.17;36.61
37710;BME280;60223;34.854;-92.408;2022-07-23T03:59:58;100591.04;;;25.46;35.01
37710;BME280;60223;34.854;-92.408;2022-07-23T04:02:24;100591.80;;;25.75;34.79
37710;BME280;60223;34.854;-92.408;2022-07-23T04:04:50;100588.63;;;25.58;35.05
37710;BME280;60223;34.854;-92.408;2022-07-23T04:07:14;100586.97;;;26.65;34.10
37710;BME280;60223;34.854;-92.408;2022-07-23T04:09:40;100585.23;;;26.43;34.91
37710;BME280;60223;34.854;-92.408;2022-07-23T04:12:07;100589.91;;;26.90;34.41
37710;BME280;60223;34.854;-92.408;2022-07-23T04:14:32;100590.09;;;25.71;36.05
37710;BME280;60223;34.854;-92.408;2022-07-23T04:16:56;100594.36;;;26.47;35.45
37710;BME280;60223;34.854;-92.408;2022-07-23T04:19:24;100596.87;;;26.77;35.83
37710;BME280;60223;34.854;-92.408;2022-07-23T04:21:49;100599.65;;;26.31;36.14
37710;BME280;60223;34.854;-92.408;2022-07-23T04:24:13;100601.62;;;26.18;36.12
37710;BME280;60223;34.854;-92.408;2022-07-23T04:26:40;100599.45;;;26.53;35.89
37710;BME280;60223;34.854;-92.408;2022-07-23T04:29:06;100601.64;;;26.75;36.17
37710;BME280;60223;34.854;-92.408;2022-07-23T04:31:29;100601.03;;;26.43;36.11
37710;BME280;60223;34.854;-92.408;2022-07-23T04:33:55;100604.11;;;26.38;36.08
37710;BME280;60223;34.854;-92.408;2022-07-23T04:36:23;100605.38;;;26.76;36.48
37710;BME280;60223;34.854;-92.408;2022-07-23T04:38:48;100606.23;;;26.43;36.79
37710;BME280;60223;34.854;-92.408;2022-07-23T04:41:12;100603.40;;;27.64;35.67
37710;BME280;60223;34.854;-92.408;2022-07-23T04:43:39;100604.16;;;26.19;37.39
37710;BME280;60223;34.854;-92.408;2022-07-23T04:46:05;100606.34;;;26.62;36.59
37710;BME280;60223;34.854;-92.408;2022-07-23T04:48:28;100608.64;;;27.80;35.33
37710;BME280;60223;34.854;-92.408;2022-07-23T04:50:55;100606.85;;;27.02;36.27
37710;BME280;60223;34.854;-92.408;2022-07-23T04:53:22;100605.21;;;28.07;34.93
37710;BME280;60223;34.854;-92.408;2022-07-23T04:55:46;100601.41;;;26.59;36.61
37710;BME280;60223;34.854;-92.408;2022-07-23T04:58:12;100601.27;;;26.94;36.16
37710;BME280;60223;34.854;-92.408;2022-07-23T05:00:38;100601.80;;;27.09;35.99
37710;BME280;60223;34.854;-92.408;2022-07-23T05:03:04;100604.22;;;27.39;35.65
37710;BME280;60223;34.854;-92.408;2022-07-23T05:05:29;100600.75;;;27.79;34.87
37710;BME280;60223;34.854;-92.408;2022-07-23T05:07:52;100596.55;;;28.01;34.88
37710;BME280;60223;34.854;-92.408;2022-07-23T05:10:21;100595.72;;;26.46;35.35
37710;BME280;60223;34.854;-92.408;2022-07-23T05:12:45;100596.84;;;27.70;33.44
37710;BME280;60223;34.854;-92.408;2022-07-23T05:15:12;100592.81;;;28.06;32.57
37710;BME280;60223;34.854;-92.408;2022-07-23T05:17:37;100594.57;;;28.58;31.56
37710;BME280;60223;34.854;-92.408;2022-07-23T05:20:00;100592.93;;;27.47;32.29
37710;BME280;60223;34.854;-92.408;2022-07-23T05:22:29;100594.74;;;23.59;36.66
37710;BME280;60223;34.854;-92.408;2022-07-23T05:24:53;100596.76;;;23.13;36.78
37710;BME280;60223;34.854;-92.408;2022-07-23T05:27:20;100594.54;;;23.28;36.81
37710;BME280;60223;34.854;-92.408;2022-07-23T05:29:45;100591.79;;;22.28;37.38
37710;BME280;60223;34.854;-92.408;2022-07-23T05:32:11;100593.60;;;23.20;36.13
37710;BME280;60223;34.854;-92.408;2022-07-23T05:34:36;100592.14;;;22.39;37.08
37710;BME280;60223;34.854;-92.408;2022-07-23T05:37:02;100588.81;;;23.82;34.45
37710;BME280;60223;34.854;-92.408;2022-07-23T05:39:27;100586.14;;;23.92;34.44
37710;BME280;60223;34.854;-92.408;2022-07-23T05:41:54;100585.39;;;22.83;35.05
37710;BME280;60223;34.854;-92.408;2022-07-23T05:44:19;100582.34;;;22.78;35.30
37710;BME280;60223;34.854;-92.408;2022-07-23T05:46:43;100585.58;;;23.16;34.45
37710;BME280;60223;34.854;-92.408;2022-07-23T05:49:11;100582.56;;;22.20;35.39
37710;BME280;60223;34.854;-92.408;2022-07-23T05:51:32;100578.66;;;23.24;34.18
37710;BME280;60223;34.854;-92.408;2022-07-23T05:54:01;100583.25;;;23.39;33.92
37710;BME280;60223;34.854;-92.408;2022-07-23T05:56:28;100587.79;;;21.86;35.26
37710;BME280;60223;34.854;-92.408;2022-07-23T05:58:53;100588.76;;;23.64;33.11
37710;BME280;60223;34.854;-92.408;2022-07-23T06:01:17;100587.63;;;24.47;32.12
37710;BME280;60223;34.854;-92.408;2022-07-23T06:03:45;100584.37;;;23.13;33.13
37710;BME280;60223;34.854;-92.408;2022-07-23T06:06:09;100582.91;;;23.29;33.31
37710;BME280;60223;34.854;-92.408;2022-07-23T06:08:36;100584.58;;;22.98;35.05
37710;BME280;60223;34.854;-92.408;2022-07-23T06:11:01;100589.75;;;23.46;34.98
37710;BME280;60223;34.854;-92.408;2022-07-23T06:13:29;100591.13;;;24.37;34.57
37710;BME280;60223;34.854;-92.408;2022-07-23T06:15:52;100595.88;;;26.24;32.80
37710;BME280;60223;34.854;-92.408;2022-07-23T06:18:17;100599.12;;;25.40;34.29
37710;BME280;60223;34.854;-92.408;2022-07-23T06:20:43;100601.20;;;24.71;34.85
37710;BME280;60223;34.854;-92.408;2022-07-23T06:23:09;100601.89;;;25.19;35.31
37710;BME280;60223;34.854;-92.408;2022-07-23T06:25:32;100604.43;;;24.34;36.21
37710;BME280;60223;34.854;-92.408;2022-07-23T06:28:01;100604.63;;;24.39;36.61
37710;BME280;60223;34.854;-92.408;2022-07-23T06:30:26;100607.86;;;25.10;35.98
37710;BME280;60223;34.854;-92.408;2022-07-23T06:32:52;100606.26;;;25.36;35.71
37710;BME280;60223;34.854;-92.408;2022-07-23T06:35:17;100605.29;;;27.92;32.77
37710;BME280;60223;34.854;-92.408;2022-07-23T06:37:42;100599.04;;;28.46;32.30
37710;BME280;60223;34.854;-92.408;2022-07-23T06:40:09;100598.60;;;27.75;33.27
37710;BME280;60223;34.854;-92.408;2022-07-23T06:42:34;100596.03;;;28.32;32.58
37710;BME280;60223;34.854;-92.408;2022-07-23T06:44:59;100591.81;;;27.67;33.73
37710;BME280;60223;34.854;-92.408;2022-07-23T06:47:27;100592.21;;;28.53;32.61
37710;BME280;60223;34.854;-92.408;2022-07-23T06:49:51;100591.60;;;29.06;31.83
37710;BME280;60223;34.854;-92.408;2022-07-23T06:52:17;100593.29;;;29.41;32.07
37710;BME280;60223;34.854;-92.408;2022-07-23T06:54:41;100598.29;;;29.16;32.05
37710;BME280;60223;34.854;-92.408;2022-07-23T06:57:08;100599.59;;;29.15;32.17
37710;BME280;60223;34.854;-92.408;2022-07-23T06:59:34;100607.25;;;28.77;32.26
37710;BME280;60223;34.854;-92.408;2022-07-23T07:01:56;100607.02;;;28.40;33.15
37710;BME280;60223;34.854;-92.408;2022-07-23T07:04:25;100611.43;;;28.32;33.41
37710;BME280;60223;34.854;-92.408;2022-07-23T07:06:50;100614.89;;;26.65;35.62
37710;BME280;60223;34.854;-92.408;2022-07-23T07:09:16;100614.70;;;26.95;34.72
37710;BME280;60223;34.854;-92.408;2022-07-23T07:11:41;100614.59;;;25.76;36.54
37710;BME280;60223;34.854;-92.408;2022-07-23T07:14:04;100617.00;;;25.74;37.03
37710;BME280;60223;34.854;-92.408;2022-07-23T07:16:31;100614.38;;;26.54;36.08
37710;BME280;60223;34.854;-92.408;2022-07-23T07:18:59;100613.96;;;26.18;36.50
37710;BME280;60223;34.854;-92.408;2022-07-23T07:21:24;100610.94;;;26.04;36.82
37710;BME280;60223;34.854;-92.408;2022-07-23T07:23:49;100611.58;;;26.08;36.82
37710;BME280;60223;34.854;-92.408;2022-07-23T07:26:15;100615.83;;;26.87;36.10
37710;BME280;60223;34.854;-92.408;2022-07-23T07:28:38;100617.34;;;26.11;36.93
37710;BME280;60223;34.854;-92.408;2022-07-23T07:31:06;100623.28;;;26.16;36.89
37710;BME280;60223;34.854;-92.408;2022-07-23T07:33:31;100626.46;;;26.09;36.93
37710;BME280;60223;34.854;-92.408;2022-07-23T07:35:57;100629.09;;;26.70;36.00
37710;BME280;60223;34.854;-92.408;2022-07-23T07:38:23;100628.77;;;26.30;36.79
37710;BME280;60223;34.854;-92.408;2022-07-23T07:40:45;100629.50;;;26.10;36.92
37710;BME280;60223;34.854;-92.408;2022-07-23T07:43:14;100625.74;;;27.44;35.34
37710;BME280;60223;34.854;-92.408;2022-07-23T07:45:39;100625.96;;;26.73;35.68
37710;BME280;60223;34.854;-92.408;2022-07-23T07:48:05;100627.06;;;27.27;35.55
37710;BME280;60223;34.854;-92.408;2022-07-23T07:50:30;100628.54;;;26.54;36.74
37710;BME280;60223;34.854;-92.408;2022-07-23T07:52:56;100627.43;;;26.45;36.88
37710;BME280;60223;34.854;-92.408;2022-07-23T07:55:19;100628.88;;;26.59;36.77
37710;BME280;60223;34.854;-92.408;2022-07-23T07:57:47;100627.86;;;26.58;36.76
37710;BME280;60223;34.854;-92.408;2022-07-23T08:00:12;100624.77;;;26.27;37.07
37710;BME280;60223;34.854;-92.408;2022-07-23T08:02:41;100631.87;;;24.54;38.03
37710;BME280;60223;34.854;-92.408;2022-07-23T08:05:04;100630.09;;;25.48;35.95
37710;BME280;60223;34.854;-92.408;2022-07-23T08:07:29;100629.30;;;26.17;34.32
37710;BME280;60223;34.854;-92.408;2022-07-23T08:09:55;100630.28;;;27.21;32.77
37710;BME280;60223;34.854;-92.408;2022-07-23T08:12:20;100629.94;;;27.23;32.21
37710;BME280;60223;34.854;-92.408;2022-07-23T08:14:46;100631.19;;;27.29;31.92
37710;BME280;60223;34.854;-92.408;2022-07-23T08:17:12;100629.68;;;27.34;31.19
37710;BME280;60223;34.854;-92.408;2022-07-23T08:19:37;100632.24;;;25.93;32.02
37710;BME280;60223;34.854;-92.408;2022-07-23T08:22:00;100632.27;;;27.16;30.45
37710;BME280;60223;34.854;-92.408;2022-07-23T08:24:29;100633.08;;;27.02;30.35
37710;BME280;60223;34.854;-92.408;2022-07-23T08:26:53;100631.10;;;26.76;30.04
37710;BME280;60223;34.854;-92.408;2022-07-23T08:29:20;100632.43;;;26.49;30.70
37710;BME280;60223;34.854;-92.408;2022-07-23T08:31:45;100637.57;;;24.67;31.98
37710;BME280;60223;34.854;-92.408;2022-07-23T08:34:08;100642.14;;;25.67;31.25
37710;BME280;60223;34.854;-92.408;2022-07-23T08:36:37;100644.43;;;25.51;31.11
37710;BME280;60223;34.854;-92.408;2022-07-23T08:39:03;100648.76;;;26.04;30.20
37710;BME280;60223;34.854;-92.408;2022-07-23T08:41:27;100652.16;;;25.41;30.80
37710;BME280;60223;34.854;-92.408;2022-07-23T08:43:54;100659.14;;;25.77;29.96
37710;BME280;60223;34.854;-92.408;2022-07-23T08:46:20;100665.33;;;26.09;29.65
37710;BME280;60223;34.854;-92.408;2022-07-23T08:48:45;100671.23;;;26.71;28.77
37710;BME280;60223;34.854;-92.408;2022-07-23T08:51:09;100675.18;;;23.60;33.85
37710;BME280;60223;34.854;-92.408;2022-07-23T08:53:37;100677.70;;;22.26;36.33
37710;BME280;60223;34.854;-92.408;2022-07-23T08:56:01;100674.05;;;24.22;34.43
37710;BME280;60223;34.854;-92.408;2022-07-23T08:58:28;100675.77;;;25.34;33.70
37710;BME280;60223;34.854;-92.408;2022-07-23T09:00:52;100678.33;;;26.84;32.08
37710;BME280;60223;34.854;-92.408;2022-07-23T09:03:20;100678.47;;;25.60;33.89
37710;BME280;60223;34.854;-92.408;2022-07-23T09:05:44;100677.55;;;26.43;33.26
37710;BME280;60223;34.854;-92.408;2022-07-23T09:08:11;100681.45;;;25.26;35.02
37710;BME280;60223;34.854;-92.408;2022-07-23T09:10:43;100683.37;;;25.42;35.26
37710;BME280;60223;34.854;-92.408;2022-07-23T09:13:00;100685.25;;;26.00;35.19
37710;BME280;60223;34.854;-92.408;2022-07-23T09:15:26;100681.80;;;26.00;35.21
37710;BME280;60223;34.854;-92.408;2022-07-23T09:17:52;100680.26;;;25.89;35.94
37710;BME280;60223;34.854;-92.408;2022-07-23T09:20:18;100677.46;;;26.56;34.93
37710;BME280;60223;34.854;-92.408;2022-07-23T09:22:44;100677.05;;;26.52;35.03
37710;BME280;60223;34.854;-92.408;2022-07-23T09:25:11;100679.59;;;25.97;35.90
37710;BME280;60223;34.854;-92.408;2022-07-23T09:27:45;100687.29;;;26.14;36.08
37710;BME280;60223;34.854;-92.408;2022-07-23T09:30:00;100687.12;;;25.05;37.36
37710;BME280;60223;34.854;-92.408;2022-07-23T09:32:26;100687.17;;;26.22;36.01
37710;BME280;60223;34.854;-92.408;2022-07-23T09:34:52;100686.32;;;25.91;36.45
37710;BME280;60223;34.854;-92.408;2022-07-23T09:37:18;100686.00;;;26.05;36.69
37710;BME280;60223;34.854;-92.408;2022-07-23T09:39:41;100686.02;;;26.74;35.72
37710;BME280;60223;34.854;-92.408;2022-07-23T09:42:13;100683.42;;;26.01;36.62
37710;BME280;60223;34.854;-92.408;2022-07-23T09:44:32;100685.87;;;26.34;36.22
37710;BME280;60223;34.854;-92.408;2022-07-23T09:47:00;100680.68;;;27.13;35.35
37710;BME280;60223;34.854;-92.408;2022-07-23T09:49:32;100681.06;;;26.40;35.73
37710;BME280;60223;34.854;-92.408;2022-07-23T09:51:54;100683.06;;;26.74;35.91
37710;BME280;60223;34.854;-92.408;2022-07-23T09:54:21;100678.69;;;28.28;33.66
37710;BME280;60223;34.854;-92.408;2022-07-23T09:56:41;100681.54;;;27.53;34.38
37710;BME280;60223;34.854;-92.408;2022-07-23T10:01:32;100678.12;;;28.57;33.22
37710;BME280;60223;34.854;-92.408;2022-07-23T10:03:57;100671.81;;;28.80;32.91
37710;BME280;60223;34.854;-92.408;2022-07-23T10:06:23;100674.59;;;28.67;33.14
37710;BME280;60223;34.854;-92.408;2022-07-23T10:08:46;100677.17;;;28.34;33.59
37710;BME280;60223;34.854;-92.408;2022-07-23T10:11:14;100674.31;;;29.01;32.83
37710;BME280;60223;34.854;-92.408;2022-07-23T10:13:39;100672.94;;;29.17;32.58
37710;BME280;60223;34.854;-92.408;2022-07-23T10:16:05;100674.16;;;29.57;31.69
37710;BME280;60223;34.854;-92.408;2022-07-23T10:18:30;100673.80;;;29.49;32.03
37710;BME280;60223;34.854;-92.408;2022-07-23T10:20:53;100676.20;;;29.94;31.79
37710;BME280;60223;34.854;-92.408;2022-07-23T10:23:27;100678.33;;;30.18;31.48
37710;BME280;60223;34.854;-92.408;2022-07-23T10:25:54;100682.17;;;29.63;31.64
37710;BME280;60223;34.854;-92.408;2022-07-23T10:28:25;100687.35;;;29.19;32.66
37710;BME280;60223;34.854;-92.408;2022-07-23T10:30:43;100690.84;;;29.42;32.45
37710;BME280;60223;34.854;-92.408;2022-07-23T10:33:17;100693.71;;;29.05;32.64
37710;BME280;60223;34.854;-92.408;2022-07-23T10:35:36;100697.34;;;30.05;31.26
37710;BME280;60223;34.854;-92.408;2022-07-23T10:37:55;100699.38;;;27.64;33.96
37710;BME280;60223;34.854;-92.408;2022-07-23T10:40:21;100699.47;;;27.92;33.81
37710;BME280;60223;34.854;-92.408;2022-07-23T10:42:46;100703.56;;;27.88;33.79
37710;BME280;60223;34.854;-92.408;2022-07-23T10:45:22;100707.16;;;28.30;33.33
37710;BME280;60223;34.854;-92.408;2022-07-23T10:47:34;100708.29;;;28.83;32.70
37710;BME280;60223;34.854;-92.408;2022-07-23T10:52:29;100708.70;;;28.70;33.06
37710;BME280;60223;34.854;-92.408;2022-07-23T10:54:54;100707.86;;;27.46;34.39
37710;BME280;60223;34.854;-92.408;2022-07-23T10:57:18;100707.62;;;29.72;31.89
37710;BME280;60223;34.854;-92.408;2022-07-23T11:02:22;100711.61;;;29.46;32.26
37710;BME280;60223;34.854;-92.408;2022-07-23T11:07:09;100719.67;;;28.29;33.54
37710;BME280;60223;34.854;-92.408;2022-07-23T11:09:28;100718.07;;;29.56;32.08
37710;BME280;60223;34.854;-92.408;2022-07-23T11:14:16;100717.06;;;29.70;32.05
37710;BME280;60223;34.854;-92.408;2022-07-23T11:16:46;100718.50;;;29.01;32.86
37710;BME280;60223;34.854;-92.408;2022-07-23T11:19:11;100717.77;;;29.84;31.85
37710;BME280;60223;34.854;-92.408;2022-07-23T11:21:42;100721.26;;;29.88;31.90
37710;BME280;60223;34.854;-92.408;2022-07-23T11:24:06;100722.23;;;29.78;32.20
37710;BME280;60223;34.854;-92.408;2022-07-23T11:28:48;100721.41;;;29.31;33.10
37710;BME280;60223;34.854;-92.408;2022-07-23T11:31:21;100725.09;;;28.96;32.90
37710;BME280;60223;34.854;-92.408;2022-07-23T11:33:40;100731.01;;;28.36;34.76
37710;BME280;60223;34.854;-92.408;2022-07-23T11:36:06;100733.58;;;27.09;35.83
37710;BME280;60223;34.854;-92.408;2022-07-23T11:38:31;100734.78;;;27.99;36.24
37710;BME280;60223;34.854;-92.408;2022-07-23T11:40:59;100732.49;;;28.08;36.16
37710;BME280;60223;34.854;-92.408;2022-07-23T11:43:22;100733.28;;;26.98;37.16
37710;BME280;60223;34.854;-92.408;2022-07-23T11:45:51;100735.32;;;27.48;36.39
37710;BME280;60223;34.854;-92.408;2022-07-23T11:48:21;100730.61;;;26.97;37.43
37710;BME280;60223;34.854;-92.408;2022-07-23T11:50:40;100735.60;;;26.74;38.36
37710;BME280;60223;34.854;-92.408;2022-07-23T11:53:05;100734.42;;;28.50;35.65
37710;BME280;60223;34.854;-92.408;2022-07-23T11:55:29;100736.90;;;27.51;37.61
37710;BME280;60223;34.854;-92.408;2022-07-23T11:57:56;100740.56;;;28.22;36.67
37710;BME280;60223;34.854;-92.408;2022-07-23T12:00:21;100743.66;;;28.06;36.59
37710;BME280;60223;34.854;-92.408;2022-07-23T12:02:49;100748.62;;;28.41;36.01
37710;BME280;60223;34.854;-92.408;2022-07-23T12:05:15;100749.36;;;28.36;36.08
37710;BME280;60223;34.854;-92.408;2022-07-23T12:07:40;100750.49;;;28.43;35.57
37710;BME280;60223;34.854;-92.408;2022-07-23T12:10:08;100751.75;;;29.32;35.27
37710;BME280;60223;34.854;-92.408;2022-07-23T12:14:54;100760.84;;;27.82;37.24
37710;BME280;60223;34.854;-92.408;2022-07-23T12:17:20;100763.21;;;30.48;34.28
37710;BME280;60223;34.854;-92.408;2022-07-23T12:19:46;100765.94;;;28.26;36.53
37710;BME280;60223;34.854;-92.408;2022-07-23T12:22:10;100769.82;;;29.59;35.44
37710;BME280;60223;34.854;-92.408;2022-07-23T12:27:11;100771.64;;;30.04;34.78
37710;BME280;60223;34.854;-92.408;2022-07-23T12:29:33;100774.46;;;28.28;37.15
37710;BME280;60223;34.854;-92.408;2022-07-23T12:31:53;100772.99;;;28.70;37.35
37710;BME280;60223;34.854;-92.408;2022-07-23T12:34:18;100771.19;;;30.67;34.54
37710;BME280;60223;34.854;-92.408;2022-07-23T12:36:44;100772.67;;;31.96;33.99
37710;BME280;60223;34.854;-92.408;2022-07-23T12:39:09;100773.08;;;32.70;33.06
37710;BME280;60223;34.854;-92.408;2022-07-23T12:43:59;100775.41;;;32.19;34.46